sensor_id;sensor_type;location;lat;lon;timestamp;pressure;altitude;pressure_sealevel;temperature;humidity
34103;BME280;20381;54.498;18.206;2023-03-04T00:02:17;98888.86;;;3.39;66.54
34103;BME280;20381;54.498;18.206;2023-03-04T00:04:44;98898.67;;;3.41;66.62
34103;BME280;20381;54.498;18.206;2023-03-04T00:07:11;98893.86;;;3.44;67.35
34103;BME280;20381;54.498;18.206;2023-03-04T00:09:39;98881.76;;;3.46;66.99
34103;BME280;20381;54.498;18.206;2023-03-04T00:12:06;98884.73;;;3.47;66.93
34103;BME280;20381;54.498;18.206;2023-03-04T00:14:33;98885.14;;;3.48;67.06
34103;BME280;20381;54.498;18.206;2023-03-04T00:16:59;98886.82;;;3.49;67.19
34103;BME280;20381;54.498;18.206;2023-03-04T00:19:28;98892.38;;;3.50;67.26
34103;BME280;20381;54.498;18.206;2023-03-04T00:21:55;98873.81;;;3.52;67.26
34103;BME280;20381;54.498;18.206;2023-03-04T00:24:21;98882.85;;;3.52;67.35
34103;BME280;20381;54.498;18.206;2023-03-04T00:26:49;98881.98;;;3.53;67.51
34103;BME280;20381;54.498;18.206;2023-03-04T00:29:16;98878.88;;;3.55;67.52
34103;BME280;20381;54.498;18.206;2023-03-04T00:31:43;98879.30;;;3.56;67.74
34103;BME280;20381;54.498;18.206;2023-03-04T00:34:09;98883.94;;;3.58;67.88
34103;BME280;20381;54.498;18.206;2023-03-04T00:36:36;98884.64;;;3.63;68.00
34103;BME280;20381;54.498;18.206;2023-03-04T00:39:03;98877.31;;;3.64;67.86
34103;BME280;20381;54.498;18.206;2023-03-04T00:41:29;98871.24;;;3.65;67.88
34103;BME280;20381;54.498;18.206;2023-03-04T00:43:56;98862.59;;;3.66;68.09
34103;BME280;20381;54.498;18.206;2023-03-04T00:46:22;98871.03;;;3.71;68.13
34103;BME280;20381;54.498;18.206;2023-03-04T00:48:49;98869.74;;;3.71;67.99
34103;BME280;20381;54.498;18.206;2023-03-04T00:51:17;98857.22;;;3.72;67.98
34103;BME280;20381;54.498;18.206;2023-03-04T00:53:43;98859.80;;;3.72;68.11
34103;BME280;20381;54.498;18.206;2023-03-04T00:56:10;98862.80;;;3.73;68.14
34103;BME280;20381;54.498;18.206;2023-03-04T00:58:36;98856.34;;;3.73;68.27
34103;BME280;20381;54.498;18.206;2023-03-04T01:01:04;98857.22;;;3.72;68.19
34103;BME280;20381;54.498;18.206;2023-03-04T01:03:32;98862.45;;;3.71;68.34
34103;BME280;20381;54.498;18.206;2023-03-04T01:05:59;98860.81;;;3.68;68.52
34103;BME280;20381;54.498;18.206;2023-03-04T01:08:27;98858.13;;;3.71;68.53
34103;BME280;20381;54.498;18.206;2023-03-04T01:10:53;98851.19;;;3.73;68.55
34103;BME280;20381;54.498;18.206;2023-03-04T01:13:20;98855.44;;;3.74;68.42
34103;BME280;20381;54.498;18.206;2023-03-04T01:15:46;98859.73;;;3.75;68.52
34103;BME280;20381;54.498;18.206;2023-03-04T01:18:13;98852.86;;;3.74;68.56
34103;BME280;20381;54.498;18.206;2023-03-04T01:20:39;98846.82;;;3.75;68.62
34103;BME280;20381;54.498;18.206;2023-03-04T01:23:06;98846.71;;;3.78;68.76
34103;BME280;20381;54.498;18.206;2023-03-04T01:25:33;98840.64;;;3.79;68.78
34103;BME280;20381;54.498;18.206;2023-03-04T01:27:59;98848.28;;;3.83;68.85
34103;BME280;20381;54.498;18.206;2023-03-04T01:30:26;98841.33;;;3.85;68.85
34103;BME280;20381;54.498;18.206;2023-03-04T01:32:52;98840.05;;;3.85;68.94
34103;BME280;20381;54.498;18.206;2023-03-04T01:35:19;98837.05;;;3.84;69.11
34103;BME280;20381;54.498;18.206;2023-03-04T01:37:45;98841.83;;;3.83;69.09
34103;BME280;20381;54.498;18.206;2023-03-04T01:40:13;98838.44;;;3.80;69.02
34103;BME280;20381;54.498;18.206;2023-03-04T01:42:40;98835.48;;;3.79;69.08
34103;BME280;20381;54.498;18.206;2023-03-04T01:45:10;98835.59;;;3.76;69.08
34103;BME280;20381;54.498;18.206;2023-03-04T01:47:40;98828.39;;;3.73;69.16
34103;BME280;20381;54.498;18.206;2023-03-04T01:50:19;98830.63;;;3.70;69.22
34103;BME280;20381;54.498;18.206;2023-03-04T01:52:55;98822.09;;;3.68;69.26
34103;BME280;20381;54.498;18.206;2023-03-04T01:55:22;98822.13;;;3.67;69.32
34103;BME280;20381;54.498;18.206;2023-03-04T01:57:51;98818.81;;;3.63;69.26
34103;BME280;20381;54.498;18.206;2023-03-04T02:02:53;98816.65;;;3.51;69.36
34103;BME280;20381;54.498;18.206;2023-03-04T02:05:23;98827.91;;;3.48;69.60
34103;BME280;20381;54.498;18.206;2023-03-04T02:07:50;98824.88;;;3.49;69.63
34103;BME280;20381;54.498;18.206;2023-03-04T02:10:19;98823.59;;;3.49;69.64
34103;BME280;20381;54.498;18.206;2023-03-04T02:12:46;98807.27;;;3.48;69.60
34103;BME280;20381;54.498;18.206;2023-03-04T02:15:13;98806.53;;;3.45;69.71
34103;BME280;20381;54.498;18.206;2023-03-04T02:17:40;98803.64;;;3.41;69.63
34103;BME280;20381;54.498;18.206;2023-03-04T02:20:14;98802.48;;;3.36;69.75
34103;BME280;20381;54.498;18.206;2023-03-04T02:22:50;98806.11;;;3.30;69.73
34103;BME280;20381;54.498;18.206;2023-03-04T02:25:21;98804.09;;;3.27;69.84
34103;BME280;20381;54.498;18.206;2023-03-04T02:27:47;98813.28;;;3.22;69.94
34103;BME280;20381;54.498;18.206;2023-03-04T02:30:16;98794.81;;;3.21;70.07
34103;BME280;20381;54.498;18.206;2023-03-04T02:32:45;98805.58;;;3.21;70.00
34103;BME280;20381;54.498;18.206;2023-03-04T02:35:15;98804.87;;;3.16;70.08
34103;BME280;20381;54.498;18.206;2023-03-04T02:37:43;98804.94;;;3.14;70.25
34103;BME280;20381;54.498;18.206;2023-03-04T02:40:15;98811.08;;;3.10;70.28
34103;BME280;20381;54.498;18.206;2023-03-04T02:42:47;98808.59;;;3.07;70.34
34103;BME280;20381;54.498;18.206;2023-03-04T02:45:38;98802.53;;;3.08;70.50
34103;BME280;20381;54.498;18.206;2023-03-04T02:48:14;98799.95;;;3.08;70.47
34103;BME280;20381;54.498;18.206;2023-03-04T02:50:48;98800.86;;;3.07;70.54
34103;BME280;20381;54.498;18.206;2023-03-04T02:53:17;98802.53;;;3.08;70.57
34103;BME280;20381;54.498;18.206;2023-03-04T02:55:45;98802.88;;;3.10;70.66
34103;BME280;20381;54.498;18.206;2023-03-04T02:58:13;98800.72;;;3.11;70.76
34103;BME280;20381;54.498;18.206;2023-03-04T03:00:40;98808.91;;;3.11;70.78
34103;BME280;20381;54.498;18.206;2023-03-04T03:03:07;98804.63;;;3.10;70.78
34103;BME280;20381;54.498;18.206;2023-03-04T03:05:35;98791.34;;;3.09;70.93
34103;BME280;20381;54.498;18.206;2023-03-04T03:08:04;98798.28;;;3.07;70.98
34103;BME280;20381;54.498;18.206;2023-03-04T03:10:30;98801.66;;;3.09;70.95
34103;BME280;20381;54.498;18.206;2023-03-04T03:12:57;98800.05;;;3.05;71.08
34103;BME280;20381;54.498;18.206;2023-03-04T03:15:24;98792.41;;;3.02;71.13
34103;BME280;20381;54.498;18.206;2023-03-04T03:17:50;98783.03;;;2.99;71.21
34103;BME280;20381;54.498;18.206;2023-03-04T03:20:18;98785.68;;;2.98;71.29
34103;BME280;20381;54.498;18.206;2023-03-04T03:22:45;98796.03;;;2.96;71.25
34103;BME280;20381;54.498;18.206;2023-03-04T03:25:14;98795.29;;;2.93;71.32
34103;BME280;20381;54.498;18.206;2023-03-04T03:27:41;98791.91;;;2.90;71.35
34103;BME280;20381;54.498;18.206;2023-03-04T03:30:11;98791.20;;;2.85;71.40
34103;BME280;20381;54.498;18.206;2023-03-04T03:32:39;98796.87;;;2.83;71.51
34103;BME280;20381;54.498;18.206;2023-03-04T03:35:06;98797.35;;;2.81;71.56
34103;BME280;20381;54.498;18.206;2023-03-04T03:37:33;98798.32;;;2.77;71.43
34103;BME280;20381;54.498;18.206;2023-03-04T03:40:00;98789.10;;;2.70;71.53
34103;BME280;20381;54.498;18.206;2023-03-04T03:42:26;98785.10;;;2.60;71.62
34103;BME280;20381;54.498;18.206;2023-03-04T03:44:53;98785.10;;;2.60;71.62
34103;BME280;20381;54.498;18.206;2023-03-04T03:47:21;98790.35;;;2.57;71.73
34103;BME280;20381;54.498;18.206;2023-03-04T03:49:47;98788.77;;;2.53;71.67
34103;BME280;20381;54.498;18.206;2023-03-04T03:52:14;98781.23;;;2.46;71.73
34103;BME280;20381;54.498;18.206;2023-03-04T03:54:41;98783.48;;;2.42;71.81
34103;BME280;20381;54.498;18.206;2023-03-04T03:57:08;98781.47;;;2.37;71.83
34103;BME280;20381;54.498;18.206;2023-03-04T03:59:35;98783.75;;;2.33;71.84
34103;BME280;20381;54.498;18.206;2023-03-04T04:02:01;98788.57;;;2.29;71.81
34103;BME280;20381;54.498;18.206;2023-03-04T04:04:28;98787.86;;;2.24;71.85
34103;BME280;20381;54.498;18.206;2023-03-04T04:06:55;98786.66;;;2.21;71.93
34103;BME280;20381;54.498;18.206;2023-03-04T04:09:22;98793.25;;;2.16;71.85
34103;BME280;20381;54.498;18.206;2023-03-04T04:11:48;98784.73;;;2.13;71.97
34103;BME280;20381;54.498;18.206;2023-03-04T04:14:15;98786.63;;;2.08;71.89
34103;BME280;20381;54.498;18.206;2023-03-04T04:16:41;98791.05;;;2.03;72.05
34103;BME280;20381;54.498;18.206;2023-03-04T04:19:17;98789.85;;;1.99;72.02
34103;BME280;20381;54.498;18.206;2023-03-04T04:21:45;98790.41;;;1.94;71.98
34103;BME280;20381;54.498;18.206;2023-03-04T04:24:12;98793.52;;;1.91;72.01
34103;BME280;20381;54.498;18.206;2023-03-04T04:26:39;98794.02;;;1.87;72.19
34103;BME280;20381;54.498;18.206;2023-03-04T04:29:06;98792.34;;;1.86;72.17
34103;BME280;20381;54.498;18.206;2023-03-04T04:31:34;98790.25;;;1.84;72.36
34103;BME280;20381;54.498;18.206;2023-03-04T04:34:01;98790.81;;;1.79;72.26
34103;BME280;20381;54.498;18.206;2023-03-04T04:36:28;98786.64;;;1.75;72.41
34103;BME280;20381;54.498;18.206;2023-03-04T04:38:54;98784.97;;;1.74;72.40
34103;BME280;20381;54.498;18.206;2023-03-04T04:41:26;98783.68;;;1.74;72.51
34103;BME280;20381;54.498;18.206;2023-03-04T04:43:54;98785.33;;;1.76;72.67
34103;BME280;20381;54.498;18.206;2023-03-04T04:46:20;98781.38;;;1.79;72.71
34103;BME280;20381;54.498;18.206;2023-03-04T04:48:47;98785.16;;;1.83;72.62
34103;BME280;20381;54.498;18.206;2023-03-04T04:51:18;98780.29;;;1.88;72.71
34103;BME280;20381;54.498;18.206;2023-03-04T04:53:45;98783.50;;;1.96;72.66
34103;BME280;20381;54.498;18.206;2023-03-04T04:56:22;98779.19;;;1.97;72.67
34103;BME280;20381;54.498;18.206;2023-03-04T04:58:46;98782.52;;;2.00;72.73
34103;BME280;20381;54.498;18.206;2023-03-04T05:01:13;98776.83;;;2.04;72.58
34103;BME280;20381;54.498;18.206;2023-03-04T05:03:40;98779.67;;;2.10;72.78
34103;BME280;20381;54.498;18.206;2023-03-04T05:06:09;98777.91;;;2.12;72.76
34103;BME280;20381;54.498;18.206;2023-03-04T05:08:37;98769.23;;;2.16;72.74
34103;BME280;20381;54.498;18.206;2023-03-04T05:11:05;98769.62;;;2.17;72.67
34103;BME280;20381;54.498;18.206;2023-03-04T05:13:32;98759.23;;;2.20;72.74
34103;BME280;20381;54.498;18.206;2023-03-04T05:16:01;98764.77;;;2.21;72.70
34103;BME280;20381;54.498;18.206;2023-03-04T05:18:28;98763.80;;;2.25;72.85
34103;BME280;20381;54.498;18.206;2023-03-04T05:21:00;98766.20;;;2.31;72.87
34103;BME280;20381;54.498;18.206;2023-03-04T05:23:30;98763.14;;;2.33;72.73
34103;BME280;20381;54.498;18.206;2023-03-04T05:25:59;98758.70;;;2.38;72.83
34103;BME280;20381;54.498;18.206;2023-03-04T05:28:26;98769.30;;;2.42;72.83
34103;BME280;20381;54.498;18.206;2023-03-04T05:30:52;98771.70;;;2.49;72.83
34103;BME280;20381;54.498;18.206;2023-03-04T05:33:20;98765.58;;;2.53;72.80
34103;BME280;20381;54.498;18.206;2023-03-04T05:35:48;98771.47;;;2.56;72.90
34103;BME280;20381;54.498;18.206;2023-03-04T05:38:17;98763.65;;;2.59;72.71
34103;BME280;20381;54.498;18.206;2023-03-04T05:40:46;98778.27;;;2.59;72.63
34103;BME280;20381;54.498;18.206;2023-03-04T05:43:14;98774.77;;;2.61;72.77
34103;BME280;20381;54.498;18.206;2023-03-04T05:45:41;98779.85;;;2.63;72.65
34103;BME280;20381;54.498;18.206;2023-03-04T05:48:08;98776.31;;;2.67;72.70
34103;BME280;20381;54.498;18.206;2023-03-04T05:50:35;98779.70;;;2.69;72.65
34103;BME280;20381;54.498;18.206;2023-03-04T05:53:01;98778.80;;;2.70;72.65
34103;BME280;20381;54.498;18.206;2023-03-04T05:55:28;98779.95;;;2.75;72.64
34103;BME280;20381;54.498;18.206;2023-03-04T05:57:55;98783.72;;;2.78;72.50
34103;BME280;20381;54.498;18.206;2023-03-04T06:00:23;98786.66;;;2.80;72.49
34103;BME280;20381;54.498;18.206;2023-03-04T06:02:50;98789.23;;;2.80;72.35
34103;BME280;20381;54.498;18.206;2023-03-04T06:05:18;98782.69;;;2.83;72.45
34103;BME280;20381;54.498;18.206;2023-03-04T06:07:45;98786.04;;;2.85;72.36
34103;BME280;20381;54.498;18.206;2023-03-04T06:10:14;98788.63;;;2.85;72.27
34103;BME280;20381;54.498;18.206;2023-03-04T06:12:42;98785.17;;;2.86;72.23
34103;BME280;20381;54.498;18.206;2023-03-04T06:15:11;98787.33;;;2.85;72.20
34103;BME280;20381;54.498;18.206;2023-03-04T06:17:39;98779.11;;;2.87;72.21
34103;BME280;20381;54.498;18.206;2023-03-04T06:20:09;98794.58;;;2.87;72.18
34103;BME280;20381;54.498;18.206;2023-03-04T06:22:36;98788.11;;;2.89;72.09
34103;BME280;20381;54.498;18.206;2023-03-04T06:25:04;98797.87;;;2.93;72.11
34103;BME280;20381;54.498;18.206;2023-03-04T06:27:31;98799.52;;;2.95;72.06
34103;BME280;20381;54.498;18.206;2023-03-04T06:29:59;98797.67;;;2.99;72.07
34103;BME280;20381;54.498;18.206;2023-03-04T06:32:27;98797.57;;;3.02;72.07
34103;BME280;20381;54.498;18.206;2023-03-04T06:34:53;98793.12;;;3.07;71.95
34103;BME280;20381;54.498;18.206;2023-03-04T06:37:20;98794.72;;;3.11;71.98
34103;BME280;20381;54.498;18.206;2023-03-04T06:39:48;98786.09;;;3.12;71.99
34103;BME280;20381;54.498;18.206;2023-03-04T06:42:15;98790.23;;;3.16;71.92
34103;BME280;20381;54.498;18.206;2023-03-04T06:44:42;98785.05;;;3.18;71.81
34103;BME280;20381;54.498;18.206;2023-03-04T06:47:08;98792.64;;;3.22;71.83
34103;BME280;20381;54.498;18.206;2023-03-04T06:49:35;98787.48;;;3.22;71.70
34103;BME280;20381;54.498;18.206;2023-03-04T06:52:02;98789.16;;;3.23;71.66
34103;BME280;20381;54.498;18.206;2023-03-04T06:54:28;98797.60;;;3.28;71.60
34103;BME280;20381;54.498;18.206;2023-03-04T06:56:55;98794.50;;;3.30;71.62
34103;BME280;20381;54.498;18.206;2023-03-04T06:59:21;98800.78;;;3.36;71.44
34103;BME280;20381;54.498;18.206;2023-03-04T07:01:48;98799.88;;;3.38;71.27
34103;BME280;20381;54.498;18.206;2023-03-04T07:04:15;98803.98;;;3.43;71.24
34103;BME280;20381;54.498;18.206;2023-03-04T07:06:41;98801.38;;;3.45;71.16
34103;BME280;20381;54.498;18.206;2023-03-04T07:09:08;98803.95;;;3.45;71.05
34103;BME280;20381;54.498;18.206;2023-03-04T07:11:34;98805.24;;;3.45;71.04
34103;BME280;20381;54.498;18.206;2023-03-04T07:14:01;98809.11;;;3.45;70.88
34103;BME280;20381;54.498;18.206;2023-03-04T07:16:28;98813.58;;;3.40;70.61
34103;BME280;20381;54.498;18.206;2023-03-04T07:18:55;98807.89;;;3.42;70.62
34103;BME280;20381;54.498;18.206;2023-03-04T07:21:21;98819.19;;;3.39;70.35
34103;BME280;20381;54.498;18.206;2023-03-04T07:23:48;98823.80;;;3.43;70.42
34103;BME280;20381;54.498;18.206;2023-03-04T07:26:15;98825.78;;;3.48;70.08
34103;BME280;20381;54.498;18.206;2023-03-04T07:28:42;98829.55;;;3.51;69.91
34103;BME280;20381;54.498;18.206;2023-03-04T07:31:24;98824.88;;;3.49;69.53
34103;BME280;20381;54.498;18.206;2023-03-04T07:33:59;98817.34;;;3.43;69.23
34103;BME280;20381;54.498;18.206;2023-03-04T07:36:27;98835.72;;;3.33;68.73
34103;BME280;20381;54.498;18.206;2023-03-04T07:38:55;98831.78;;;3.35;68.48
34103;BME280;20381;54.498;18.206;2023-03-04T07:41:23;98829.83;;;3.42;68.40
34103;BME280;20381;54.498;18.206;2023-03-04T07:43:56;98832.48;;;3.40;67.83
34103;BME280;20381;54.498;18.206;2023-03-04T07:46:23;98836.70;;;3.43;67.61
34103;BME280;20381;54.498;18.206;2023-03-04T07:48:50;98843.16;;;3.43;67.64
34103;BME280;20381;54.498;18.206;2023-03-04T07:51:19;98844.44;;;3.43;67.54
34103;BME280;20381;54.498;18.206;2023-03-04T07:53:50;98836.70;;;3.43;66.94
34103;BME280;20381;54.498;18.206;2023-03-04T07:56:20;98837.77;;;3.35;66.75
34103;BME280;20381;54.498;18.206;2023-03-04T07:58:51;98842.06;;;3.36;66.28
34103;BME280;20381;54.498;18.206;2023-03-04T08:01:22;98839.48;;;3.36;65.98
34103;BME280;20381;54.498;18.206;2023-03-04T08:03:51;98840.36;;;3.35;65.88
34103;BME280;20381;54.498;18.206;2023-03-04T08:06:20;98840.16;;;3.42;65.70
34103;BME280;20381;54.498;18.206;2023-03-04T08:08:57;98840.86;;;3.47;65.51
34103;BME280;20381;54.498;18.206;2023-03-04T08:11:27;98834.40;;;3.47;65.13
34103;BME280;20381;54.498;18.206;2023-03-04T08:13:56;98826.41;;;3.41;64.94
34103;BME280;20381;54.498;18.206;2023-03-04T08:16:23;98831.53;;;3.43;64.83
34103;BME280;20381;54.498;18.206;2023-03-04T08:18:52;98838.80;;;3.45;64.56
34103;BME280;20381;54.498;18.206;2023-03-04T08:21:21;98826.27;;;3.46;63.56
34103;BME280;20381;54.498;18.206;2023-03-04T08:23:51;98834.92;;;3.45;63.93
34103;BME280;20381;54.498;18.206;2023-03-04T08:26:24;98829.83;;;3.42;63.06
34103;BME280;20381;54.498;18.206;2023-03-04T08:28:56;98834.12;;;3.43;63.34
34103;BME280;20381;54.498;18.206;2023-03-04T08:31:24;98837.57;;;3.42;61.54
34103;BME280;20381;54.498;18.206;2023-03-04T08:33:51;98844.55;;;3.40;62.30
34103;BME280;20381;54.498;18.206;2023-03-04T08:36:21;98836.48;;;3.35;61.24
34103;BME280;20381;54.498;18.206;2023-03-04T08:38:48;98822.31;;;3.22;61.10
34103;BME280;20381;54.498;18.206;2023-03-04T08:41:15;98822.31;;;3.22;61.10
34103;BME280;20381;54.498;18.206;2023-03-04T08:43:42;98843.14;;;3.29;60.02
34103;BME280;20381;54.498;18.206;2023-03-04T08:46:11;98844.56;;;3.25;59.47
34103;BME280;20381;54.498;18.206;2023-03-04T08:48:38;98861.20;;;3.29;59.59
34103;BME280;20381;54.498;18.206;2023-03-04T08:51:09;98859.11;;;3.27;59.53
34103;BME280;20381;54.498;18.206;2023-03-04T08:53:37;98866.36;;;3.29;59.03
34103;BME280;20381;54.498;18.206;2023-03-04T08:56:05;98863.07;;;3.24;58.79
34103;BME280;20381;54.498;18.206;2023-03-04T08:58:32;98858.81;;;3.23;58.42
34103;BME280;20381;54.498;18.206;2023-03-04T09:01:00;98866.36;;;3.29;57.30
34103;BME280;20381;54.498;18.206;2023-03-04T09:03:28;98862.61;;;3.40;58.46
34103;BME280;20381;54.498;18.206;2023-03-04T09:05:57;98866.77;;;3.44;57.97
34103;BME280;20381;54.498;18.206;2023-03-04T09:08:24;98864.78;;;3.52;57.75
34103;BME280;20381;54.498;18.206;2023-03-04T09:10:53;98867.56;;;3.46;55.90
34103;BME280;20381;54.498;18.206;2023-03-04T09:13:26;98873.63;;;3.45;57.32
34103;BME280;20381;54.498;18.206;2023-03-04T09:15:50;98883.05;;;3.46;57.27
34103;BME280;20381;54.498;18.206;2023-03-04T09:18:18;98877.19;;;3.41;56.91
34103;BME280;20381;54.498;18.206;2023-03-04T09:20:46;98891.86;;;3.39;56.76
34103;BME280;20381;54.498;18.206;2023-03-04T09:23:13;98888.31;;;3.43;56.76
34103;BME280;20381;54.498;18.206;2023-03-04T09:25:42;98889.95;;;3.45;56.48
34103;BME280;20381;54.498;18.206;2023-03-04T09:28:12;98886.44;;;3.48;56.44
34103;BME280;20381;54.498;18.206;2023-03-04T09:30:39;98886.23;;;3.54;56.40
34103;BME280;20381;54.498;18.206;2023-03-04T09:33:06;98895.31;;;3.66;55.99
34103;BME280;20381;54.498;18.206;2023-03-04T09:35:32;98911.54;;;3.69;55.81
34103;BME280;20381;54.498;18.206;2023-03-04T09:38:00;98898.53;;;3.72;55.71
34103;BME280;20381;54.498;18.206;2023-03-04T09:40:32;98897.76;;;3.70;55.12
34103;BME280;20381;54.498;18.206;2023-03-04T09:43:14;98893.19;;;3.78;54.94
34103;BME280;20381;54.498;18.206;2023-03-04T09:45:48;98898.53;;;3.86;54.84
34103;BME280;20381;54.498;18.206;2023-03-04T09:48:22;98911.23;;;4.05;54.74
34103;BME280;20381;54.498;18.206;2023-03-04T09:56:25;98917.53;;;4.71;52.21
34103;BME280;20381;54.498;18.206;2023-03-04T10:01:36;98910.05;;;4.99;53.36
34103;BME280;20381;54.498;18.206;2023-03-04T10:04:11;98912.84;;;5.16;53.08
34103;BME280;20381;54.498;18.206;2023-03-04T10:06:40;98900.16;;;5.21;52.87
34103;BME280;20381;54.498;18.206;2023-03-04T10:09:13;98913.23;;;5.18;52.49
34103;BME280;20381;54.498;18.206;2023-03-04T10:12:11;98914.93;;;5.19;52.74
34103;BME280;20381;54.498;18.206;2023-03-04T10:17:23;98913.68;;;5.17;50.67
34103;BME280;20381;54.498;18.206;2023-03-04T10:20:05;98923.48;;;5.43;50.89
34103;BME280;20381;54.498;18.206;2023-03-04T10:22:50;98930.46;;;6.17;51.14
34103;BME280;20381;54.498;18.206;2023-03-04T10:30:58;98925.77;;;6.95;49.19
34103;BME280;20381;54.498;18.206;2023-03-04T10:33:38;98922.31;;;6.76;48.83
34103;BME280;20381;54.498;18.206;2023-03-04T10:36:31;98921.48;;;7.13;48.60
34103;BME280;20381;54.498;18.206;2023-03-04T10:39:08;98917.94;;;8.49;47.80
34103;BME280;20381;54.498;18.206;2023-03-04T10:41:40;98922.17;;;10.47;47.86
34103;BME280;20381;54.498;18.206;2023-03-04T10:44:14;98898.42;;;11.91;47.56
34103;BME280;20381;54.498;18.206;2023-03-04T10:46:44;98897.03;;;12.63;46.63
34103;BME280;20381;54.498;18.206;2023-03-04T10:49:14;98895.43;;;13.36;47.55
34103;BME280;20381;54.498;18.206;2023-03-04T10:51:45;98900.47;;;13.87;47.79
34103;BME280;20381;54.498;18.206;2023-03-04T11:02:24;98882.98;;;20.37;44.15
34103;BME280;20381;54.498;18.206;2023-03-04T11:07:51;98882.22;;;22.70;42.18
34103;BME280;20381;54.498;18.206;2023-03-04T11:10:22;98862.50;;;24.08;41.94
34103;BME280;20381;54.498;18.206;2023-03-04T11:15:29;98871.67;;;26.22;39.40
34103;BME280;20381;54.498;18.206;2023-03-04T11:18:00;98884.36;;;26.24;34.42
34103;BME280;20381;54.498;18.206;2023-03-04T11:20:36;98885.06;;;25.90;34.24
34103;BME280;20381;54.498;18.206;2023-03-04T11:23:13;98894.36;;;26.72;33.95
34103;BME280;20381;54.498;18.206;2023-03-04T11:25:46;98889.42;;;27.10;32.22
34103;BME280;20381;54.498;18.206;2023-03-04T11:28:19;98861.13;;;28.53;31.69
34103;BME280;20381;54.498;18.206;2023-03-04T11:30:57;98870.66;;;29.20;30.47
34103;BME280;20381;54.498;18.206;2023-03-04T11:39:04;98893.27;;;30.05;25.62
34103;BME280;20381;54.498;18.206;2023-03-04T11:41:41;98878.91;;;29.48;24.94
34103;BME280;20381;54.498;18.206;2023-03-04T11:44:06;98893.36;;;29.92;23.15
34103;BME280;20381;54.498;18.206;2023-03-04T11:49:59;98906.27;;;29.54;21.84
34103;BME280;20381;54.498;18.206;2023-03-04T11:52:35;98898.42;;;30.07;20.89
34103;BME280;20381;54.498;18.206;2023-03-04T11:55:11;98898.20;;;29.77;19.20
34103;BME280;20381;54.498;18.206;2023-03-04T11:58:08;98897.50;;;30.20;19.64
34103;BME280;20381;54.498;18.206;2023-03-04T12:01:08;98917.47;;;30.37;19.40
34103;BME280;20381;54.498;18.206;2023-03-04T12:06:25;98900.34;;;25.96;17.16
34103;BME280;20381;54.498;18.206;2023-03-04T12:23:42;98946.71;;;12.96;16.35
34103;BME280;20381;54.498;18.206;2023-03-04T12:26:44;98955.85;;;11.65;16.81
34103;BME280;20381;54.498;18.206;2023-03-04T12:46:25;98978.47;;;6.05;17.99
34103;BME280;20381;54.498;18.206;2023-03-04T12:54:30;98979.16;;;4.84;18.96
34103;BME280;20381;54.498;18.206;2023-03-04T12:57:11;98989.08;;;4.96;18.94
34103;BME280;20381;54.498;18.206;2023-03-04T12:59:43;98988.51;;;4.88;19.25
34103;BME280;20381;54.498;18.206;2023-03-04T13:10:40;98998.73;;;4.54;20.03
34103;BME280;20381;54.498;18.206;2023-03-04T13:13:32;99004.06;;;4.36;19.92
34103;BME280;20381;54.498;18.206;2023-03-04T13:16:05;99017.96;;;4.20;20.25
34103;BME280;20381;54.498;18.206;2023-03-04T13:18:45;99007.31;;;3.90;20.43
34103;BME280;20381;54.498;18.206;2023-03-04T13:21:20;99017.04;;;3.81;20.84
34103;BME280;20381;54.498;18.206;2023-03-04T13:23:50;99009.39;;;3.78;20.98
34103;BME280;20381;54.498;18.206;2023-03-04T13:26:33;99019.20;;;3.67;20.83
34103;BME280;20381;54.498;18.206;2023-03-04T13:32:42;99020.66;;;3.61;21.12
34103;BME280;20381;54.498;18.206;2023-03-04T13:34:52;99000.86;;;3.47;21.45
34103;BME280;20381;54.498;18.206;2023-03-04T13:37:33;99022.96;;;3.42;21.46
34103;BME280;20381;54.498;18.206;2023-03-04T13:43:23;99012.62;;;3.27;22.06
34103;BME280;20381;54.498;18.206;2023-03-04T13:45:52;99011.69;;;3.15;22.15
34103;BME280;20381;54.498;18.206;2023-03-04T13:48:29;99025.51;;;2.98;22.57
34103;BME280;20381;54.498;18.206;2023-03-04T13:50:57;99027.45;;;2.89;22.76
34103;BME280;20381;54.498;18.206;2023-03-04T13:53:39;99026.47;;;2.77;22.92
34103;BME280;20381;54.498;18.206;2023-03-04T13:59:00;99035.73;;;2.52;23.39
34103;BME280;20381;54.498;18.206;2023-03-04T14:06:51;99038.07;;;2.77;24.12
34103;BME280;20381;54.498;18.206;2023-03-04T14:09:21;99048.33;;;2.80;24.19
34103;BME280;20381;54.498;18.206;2023-03-04T14:12:02;99038.07;;;2.77;24.09
34103;BME280;20381;54.498;18.206;2023-03-04T14:14:41;99047.77;;;2.69;24.32
34103;BME280;20381;54.498;18.206;2023-03-04T14:17:21;99034.25;;;2.59;24.69
34103;BME280;20381;54.498;18.206;2023-03-04T14:19:50;99040.86;;;2.53;24.82
34103;BME280;20381;54.498;18.206;2023-03-04T14:22:30;99047.09;;;2.44;24.66
34103;BME280;20381;54.498;18.206;2023-03-04T14:27:42;99043.28;;;2.25;24.91
34103;BME280;20381;54.498;18.206;2023-03-04T14:30:24;99036.65;;;2.15;25.19
34103;BME280;20381;54.498;18.206;2023-03-04T14:32:54;99049.97;;;2.14;25.40
34103;BME280;20381;54.498;18.206;2023-03-04T14:35:28;99051.78;;;2.11;25.28
34103;BME280;20381;54.498;18.206;2023-03-04T14:40:39;99053.16;;;1.88;25.32
34103;BME280;20381;54.498;18.206;2023-03-04T14:45:48;99075.06;;;1.67;25.57
34103;BME280;20381;54.498;18.206;2023-03-04T14:48:20;99059.16;;;1.48;25.57
34103;BME280;20381;54.498;18.206;2023-03-04T14:50:54;99051.02;;;1.28;25.84
34103;BME280;20381;54.498;18.206;2023-03-04T14:53:22;99058.55;;;1.15;25.82
34103;BME280;20381;54.498;18.206;2023-03-04T14:58:49;99060.11;;;1.01;26.01
34103;BME280;20381;54.498;18.206;2023-03-04T15:01:22;99064.41;;;1.00;26.23
34103;BME280;20381;54.498;18.206;2023-03-04T15:04:00;99067.34;;;1.04;26.37
34103;BME280;20381;54.498;18.206;2023-03-04T15:06:32;99057.52;;;1.02;26.38
34103;BME280;20381;54.498;18.206;2023-03-04T15:09:18;99064.41;;;1.00;26.60
34103;BME280;20381;54.498;18.206;2023-03-04T15:11:49;99048.86;;;1.06;26.60